createdAt,value
2023-03-12T00:00:41.070Z,68.69
2023-03-12T00:05:44.364Z,68.69
2023-03-12T00:10:46.310Z,68.70
2023-03-12T00:15:48.175Z,68.54
2023-03-12T00:20:54.481Z,68.48
2023-03-12T00:26:03.967Z,68.10
2023-03-12T00:31:21.156Z,68.13
2023-03-12T00:36:26.855Z,68.08
2023-03-12T00:41:29.535Z,68.11
2023-03-12T00:46:31.457Z,68.19
2023-03-12T00:51:34.115Z,68.14
2023-03-12T00:56:35.909Z,68.16
2023-03-12T01:01:37.863Z,67.80
2023-03-12T01:06:40.704Z,68.17
2023-03-12T01:11:42.665Z,67.90
2023-03-12T01:16:44.588Z,68.07
2023-03-12T01:21:48.079Z,67.82
2023-03-12T01:26:50.085Z,67.69
2023-03-12T01:31:52.395Z,67.56
2023-03-12T01:36:55.536Z,67.63
2023-03-12T01:41:57.388Z,67.60
2023-03-12T01:46:59.371Z,67.67
2023-03-12T01:52:13.215Z,67.43
2023-03-12T01:57:31.340Z,67.49
2023-03-12T02:02:36.107Z,67.48
2023-03-12T02:07:38.458Z,67.34
2023-03-12T02:12:40.406Z,67.49
2023-03-12T02:17:42.473Z,67.37
2023-03-12T02:22:51.534Z,67.13
2023-03-12T02:27:54.401Z,67.27
2023-03-12T02:32:56.773Z,67.43
2023-03-12T02:37:59.023Z,67.28
2023-03-12T02:43:03.394Z,67.19
2023-03-12T02:48:09.447Z,67.18
2023-03-12T02:53:13.731Z,66.96
2023-03-12T02:58:15.806Z,66.87
2023-03-12T03:03:18.106Z,67.07
2023-03-12T03:08:20.293Z,66.68
2023-03-12T03:13:22.930Z,66.73
2023-03-12T03:18:25.269Z,66.68
2023-03-12T03:23:28.416Z,66.69
2023-03-12T03:28:30.895Z,66.45
2023-03-12T03:33:34.600Z,66.22
2023-03-12T03:38:37.793Z,66.20
2023-03-12T03:43:40.792Z,66.03
2023-03-12T03:48:43.740Z,66.46
2023-03-12T03:53:47.332Z,66.25
2023-03-12T03:58:49.374Z,66.08
2023-03-12T04:03:53.792Z,65.97
2023-03-12T04:08:57.518Z,66.18
2023-03-12T04:14:00.797Z,66.14
2023-03-12T04:19:06.204Z,66.24
2023-03-12T04:24:26.058Z,66.41
2023-03-12T04:29:28.170Z,66.44
2023-03-12T04:34:31.394Z,66.36
2023-03-12T04:39:35.131Z,66.37
2023-03-12T04:44:37.819Z,66.63
2023-03-12T04:49:40.328Z,66.69
2023-03-12T04:54:42.360Z,66.79
2023-03-12T04:59:44.609Z,66.70
2023-03-12T05:04:46.960Z,66.94
2023-03-12T05:09:48.900Z,67.06
2023-03-12T05:14:51.322Z,67.11
2023-03-12T05:19:54.382Z,67.08
2023-03-12T05:24:56.477Z,67.07
2023-03-12T05:29:58.825Z,67.14
2023-03-12T05:35:01.276Z,67.29
2023-03-12T05:40:04.401Z,67.31
2023-03-12T05:45:07.011Z,67.66
2023-03-12T05:50:11.662Z,67.46
2023-03-12T05:55:13.829Z,67.47
2023-03-12T06:00:17.916Z,67.39
2023-03-12T06:05:32.288Z,67.50
2023-03-12T06:10:34.565Z,67.43
2023-03-12T06:15:37.125Z,67.40
2023-03-12T06:20:43.211Z,67.08
2023-03-12T06:25:45.945Z,67.22
2023-03-12T06:30:48.771Z,67.05
2023-03-12T06:35:54.526Z,66.87
2023-03-12T06:41:01.909Z,67.19
2023-03-12T06:46:05.396Z,67.08
2023-03-12T06:51:11.568Z,66.98
2023-03-12T06:56:14.018Z,66.76
2023-03-12T07:01:15.990Z,66.63
2023-03-12T07:06:21.266Z,66.38
2023-03-12T07:11:23.562Z,66.41
2023-03-12T07:16:25.344Z,66.03
2023-03-12T07:21:27.407Z,65.98
2023-03-12T07:26:31.706Z,65.81
2023-03-12T07:31:33.687Z,65.93
2023-03-12T07:36:35.716Z,65.83
2023-03-12T07:41:39.194Z,65.90
2023-03-12T07:46:41.146Z,65.76
2023-03-12T07:51:43.292Z,65.61
2023-03-12T07:56:45.599Z,65.69
2023-03-12T08:01:48.073Z,65.64
2023-03-12T08:06:50.289Z,65.66
2023-03-12T08:11:52.285Z,65.66
2023-03-12T08:16:55.274Z,65.32
2023-03-12T08:21:58.168Z,65.23
2023-03-12T08:26:59.950Z,64.95
2023-03-12T08:32:05.400Z,64.92
2023-03-12T08:37:07.619Z,65.14
2023-03-12T08:42:09.416Z,65.45
2023-03-12T08:47:11.321Z,64.96
2023-03-12T08:52:13.147Z,64.55
2023-03-12T08:57:15.795Z,64.62
2023-03-12T09:02:18.744Z,64.55
2023-03-12T09:07:22.268Z,64.76
2023-03-12T09:12:25.162Z,65.02
2023-03-12T09:17:29.202Z,64.68
2023-03-12T09:22:33.177Z,64.59
2023-03-12T09:27:46.187Z,62.91
2023-03-12T09:32:50.167Z,63.12
2023-03-12T09:37:52.005Z,63.01
2023-03-12T09:42:58.310Z,63.06
2023-03-12T09:48:03.571Z,62.88
2023-03-12T09:53:44.552Z,62.20
2023-03-12T09:58:48.553Z,62.36
2023-03-12T10:04:19.588Z,62.08
2023-03-12T10:09:33.998Z,62.24
2023-03-12T10:15:21.118Z,61.97
2023-03-12T10:21:15.525Z,61.42
2023-03-12T10:26:36.319Z,61.46
2023-03-12T10:31:50.106Z,61.18
2023-03-12T10:36:52.824Z,61.47
2023-03-12T10:41:56.463Z,61.90
2023-03-12T10:47:35.623Z,61.59
2023-03-12T10:52:37.800Z,62.11
2023-03-12T10:57:42.448Z,62.11
2023-03-12T11:02:48.526Z,62.21
2023-03-12T11:07:51.412Z,62.06
2023-03-12T11:13:06.009Z,62.40
2023-03-12T11:18:25.519Z,61.88
2023-03-12T11:23:30.672Z,62.10
2023-03-12T11:28:42.985Z,62.09
2023-03-12T11:33:44.912Z,61.99
2023-03-12T11:38:46.766Z,61.82
2023-03-12T11:43:57.643Z,61.85
2023-03-12T11:49:22.632Z,61.72
2023-03-12T11:54:48.739Z,60.70
2023-03-12T11:59:55.648Z,60.38
2023-03-12T12:05:07.305Z,59.83
2023-03-12T12:10:09.138Z,60.10
2023-03-12T12:15:38.473Z,60.37
2023-03-12T12:21:06.267Z,60.53
2023-03-12T12:26:12.717Z,60.73
2023-03-12T12:31:50.735Z,61.06
2023-03-12T12:37:30.732Z,61.06
2023-03-12T12:42:36.832Z,61.46
2023-03-12T12:47:46.741Z,61.04
2023-03-12T12:52:58.785Z,61.08
2023-03-12T12:58:19.976Z,61.53
2023-03-12T13:03:24.877Z,61.63
2023-03-12T13:08:56.780Z,61.43
2023-03-12T13:14:02.926Z,61.58
2023-03-12T13:19:28.021Z,60.84
2023-03-12T13:24:35.659Z,61.32
2023-03-12T13:29:41.516Z,61.13
2023-03-12T13:34:46.729Z,61.11
2023-03-12T13:39:48.725Z,61.00
2023-03-12T13:44:52.547Z,60.94
2023-03-12T13:50:00.357Z,60.98
2023-03-12T13:55:14.199Z,60.59
2023-03-12T14:00:29.277Z,60.87
2023-03-12T14:05:34.779Z,60.72
2023-03-12T14:10:47.715Z,60.32
2023-03-12T14:16:05.718Z,60.53
2023-03-12T14:21:10.699Z,60.56
2023-03-12T14:26:20.557Z,60.61
2023-03-12T14:31:27.088Z,60.90
2023-03-12T14:37:01.524Z,61.98
2023-03-12T14:42:07.277Z,62.75
2023-03-12T14:47:11.724Z,63.53
2023-03-12T14:52:22.955Z,64.33
2023-03-12T14:57:24.992Z,64.94
2023-03-12T15:02:30.213Z,65.42
2023-03-12T15:07:37.450Z,65.96
2023-03-12T15:12:39.422Z,66.01
2023-03-12T15:17:41.380Z,66.38
2023-03-12T15:22:43.784Z,66.69
2023-03-12T15:27:45.690Z,67.02
2023-03-12T15:33:09.398Z,67.12
2023-03-12T15:38:17.279Z,67.39
2023-03-12T15:43:21.873Z,67.75
2023-03-12T15:48:29.364Z,67.62
2023-03-12T15:53:34.754Z,68.01
2023-03-12T15:58:41.954Z,68.08
2023-03-12T16:03:45.719Z,68.32
2023-03-12T16:08:51.599Z,68.59
2023-03-12T16:14:04.718Z,68.87
2023-03-12T16:19:15.761Z,69.13
2023-03-12T16:24:17.763Z,69.05
2023-03-12T16:29:21.762Z,69.45
2023-03-12T16:34:24.341Z,69.66
2023-03-12T16:39:30.521Z,69.58
2023-03-12T16:44:35.106Z,69.86
2023-03-12T16:49:37.117Z,69.79
2023-03-12T16:54:39.477Z,70.48
2023-03-12T16:59:41.430Z,70.74
2023-03-12T17:04:43.905Z,71.11
2023-03-12T17:09:45.644Z,71.21
2023-03-12T17:14:48.758Z,71.52
2023-03-12T17:19:52.222Z,71.95
2023-03-12T17:24:54.551Z,72.26
2023-03-12T17:29:56.428Z,72.44
2023-03-12T17:34:59.990Z,72.64
2023-03-12T17:40:07.769Z,73.09
2023-03-12T17:45:12.806Z,73.54
2023-03-12T17:50:15.622Z,73.95
2023-03-12T17:55:17.666Z,73.84
2023-03-12T18:00:22.059Z,74.34
2023-03-12T18:05:25.074Z,74.58
2023-03-12T18:10:33.118Z,74.62
2023-03-12T18:15:34.972Z,74.65
2023-03-12T18:20:39.564Z,75.03
2023-03-12T18:25:42.200Z,75.02
2023-03-12T18:30:48.187Z,75.32
2023-03-12T18:35:54.231Z,75.68
2023-03-12T18:41:07.515Z,75.70
2023-03-12T18:46:09.498Z,75.98
2023-03-12T18:51:14.381Z,76.05
2023-03-12T18:56:16.451Z,75.90
2023-03-12T19:01:18.536Z,76.07
2023-03-12T19:06:20.719Z,76.13
2023-03-12T19:11:23.822Z,76.19
2023-03-12T19:16:25.749Z,76.66
2023-03-12T19:21:27.647Z,76.92
2023-03-12T19:26:29.817Z,76.96
2023-03-12T19:31:33.162Z,77.62
2023-03-12T19:36:37.220Z,77.69
2023-03-12T19:41:40.944Z,77.67
2023-03-12T19:46:43.397Z,77.85
2023-03-12T19:51:48.564Z,77.88
2023-03-12T19:56:50.659Z,77.83
2023-03-12T20:01:56.054Z,78.10
2023-03-12T20:06:58.015Z,78.22
2023-03-12T20:12:01.789Z,78.41
2023-03-12T20:17:03.609Z,78.53
2023-03-12T20:22:06.502Z,78.33
2023-03-12T20:27:08.491Z,78.37
2023-03-12T20:32:10.576Z,78.59
2023-03-12T20:37:12.682Z,78.70
2023-03-12T20:42:14.483Z,78.96
2023-03-12T20:47:16.352Z,78.98
2023-03-12T20:52:18.723Z,79.23
2023-03-12T20:57:20.632Z,79.55
2023-03-12T21:02:23.650Z,79.61
2023-03-12T21:07:26.625Z,79.29
2023-03-12T21:12:28.558Z,79.23
2023-03-12T21:17:33.906Z,79.50
2023-03-12T21:22:36.506Z,79.59
2023-03-12T21:27:49.852Z,79.54
2023-03-12T21:32:53.112Z,79.26
2023-03-12T21:37:56.395Z,79.52
2023-03-12T21:43:00.843Z,79.60
2023-03-12T21:48:02.912Z,79.39
2023-03-12T21:53:09.165Z,79.57
2023-03-12T21:58:19.655Z,79.33
2023-03-12T22:03:21.421Z,79.44
2023-03-12T22:08:23.186Z,79.44
2023-03-12T22:13:25.168Z,79.45
2023-03-12T22:18:28.052Z,79.55
2023-03-12T22:23:30.474Z,79.37
2023-03-12T22:28:33.238Z,79.36
2023-03-12T22:33:37.074Z,79.35
2023-03-12T22:38:40.166Z,79.46
2023-03-12T22:43:50.721Z,79.55
2023-03-12T22:48:58.530Z,79.49
2023-03-12T22:54:00.836Z,79.41
2023-03-12T22:59:02.786Z,79.64
2023-03-12T23:04:06.459Z,79.51
2023-03-12T23:09:08.490Z,79.59
2023-03-12T23:14:10.433Z,79.19
2023-03-12T23:19:14.752Z,79.45
2023-03-12T23:24:16.693Z,79.36
2023-03-12T23:29:18.534Z,79.38
2023-03-12T23:34:20.604Z,79.29
2023-03-12T23:39:22.782Z,79.29
2023-03-12T23:44:25.103Z,79.38
2023-03-12T23:49:27.064Z,79.41
2023-03-12T23:54:28.970Z,79.07
2023-03-12T23:59:30.869Z,79.18
